Gaz Venture — 3FLQ4 — position and weather

sailwx.info

Track history (hours):
 
Tides and Currents Weather Stations Pressure Air Temp Water Temp Dewpoint Dewpoint Depression Visibility Wind Speed Wind Dir Waves Ship Positions

Gaz Venture

Last reported at 2017-May-26 11:00 UTC. Time now 2017-May-26 16:35 UTC.
Position N 35°55' E 014°46'.

Length 120 m; draft 5.6 m.

Type: Ship (hazmat cat D). MMSI: 356141000.

Date/timePositionNaut miles runAvg speedWind from/ knotsBaromVisibWave heightAir tempDewpointWater temp
2017-May-26 11:00N 35°55' E 014°46'0 0.0
2017-May-26 10:30N 35°55' E 014°46'0 0.0
2017-May-26 10:00N 35°55' E 014°46'0 0.0
2017-May-26 09:30N 35°55' E 014°46'0 0.0
2017-May-26 09:00N 35°55' E 014°46'0 0.0
2017-May-26 08:30N 35°55' E 014°46'0 0.0
2017-May-26 08:00N 35°55' E 014°47'0 0.0
2017-May-26 07:30N 35°55' E 014°47'0 0.0
2017-May-26 07:00N 35°55' E 014°47'0 0.0
2017-May-26 06:30N 35°55' E 014°47'0 0.0
2017-May-26 06:00N 35°55' E 014°47'0 0.0
2017-May-26 05:30N 35°55' E 014°47'0 0.0
2017-May-26 05:00N 35°55' E 014°47'0 0.0
2017-May-26 04:30N 35°55' E 014°47'0 0.0
2017-May-26 04:00N 35°55' E 014°47'0 0.0
2017-May-26 03:30N 35°55' E 014°47'0 0.0
2017-May-26 03:00N 35°55' E 014°47'0 0.0
2017-May-26 02:30N 35°55' E 014°47'0 0.0
2017-May-26 01:57N 35°55' E 014°47'0 0.0
2017-May-26 01:30N 35°55' E 014°47'0 0.0
2017-May-26 01:00N 35°55' E 014°47'0 0.0
2017-May-26 00:30N 35°55' E 014°47'0 0.0
2017-May-26 00:00N 35°55' E 014°47'0 0.0
2017-May-25 23:30N 35°55' E 014°47'0 0.0
2017-May-25 23:00N 35°55' E 014°47'0 0.0
2017-May-25 22:27N 35°55' E 014°47'0 0.0
2017-May-25 22:00N 35°55' E 014°47'0 0.0
2017-May-25 21:24N 35°55' E 014°47'0 0.0
2017-May-25 21:00N 35°55' E 014°47'0 0.0
2017-May-25 20:30N 35°55' E 014°47'0 0.0
2017-May-25 19:57N 35°55' E 014°47'0 0.0
2017-May-25 19:30N 35°55' E 014°47'0 0.0
2017-May-25 19:00N 35°55' E 014°47'0 0.1
2017-May-25 18:30N 35°55' E 014°47'0 0.0
2017-May-25 18:00N 35°55' E 014°47'0 0.0
2017-May-25 17:24N 35°55' E 014°47'0 0.0
2017-May-25 17:00N 35°55' E 014°47'0 0.0
2017-May-25 16:30N 35°55' E 014°47'3 5.5
2017-May-25 16:00N 35°56' E 014°50'5 9.8
2017-May-25 15:30N 35°58' E 014°55'814.7
2017-May-25 15:00N 36°01' E 015°03'1514.7
2017-May-25 14:00N 36°09' E 015°18'714.9
2017-May-25 13:30N 36°15' E 015°24'714.5
2017-May-25 13:00N 36°21' E 015°29'814.3
2017-May-25 12:28N 36°27' E 015°35'714.3
2017-May-25 12:00N 36°33' E 015°40'714.2
2017-May-25 11:30N 36°38' E 015°45'713.8
2017-May-25 11:00N 36°44' E 015°50'713.9
2017-May-25 10:29N 36°50' E 015°56'714.3
2017-May-25 10:00N 36°55' E 016°01'814.9
2017-May-25 09:28N 37°02' E 016°07'8114.9
2017-May-25 04:02N 38°06' E 017°09'39312.3
2017-May-23 20:11N 44°03' E 013°29'315.2
2017-May-23 20:00N 44°05' E 013°26'815.2
2017-May-23 19:30N 44°09' E 013°17'714.9
2017-May-23 19:00N 44°13' E 013°09'714.6
2017-May-23 18:30N 44°17' E 013°00'714.6
2017-May-23 18:00N 44°21' E 012°52'714.3
2017-May-23 17:30N 44°24' E 012°43'714.3
2017-May-23 17:00N 44°28' E 012°34'714.4
2017-May-23 16:30N 44°30' E 012°24'611.2
2017-May-23 16:01N 44°30' E 012°17'2 0.1
2017-May-22 18:53N 44°27' E 012°15'0 0.0
2017-May-22 18:23N 44°27' E 012°15'0 0.0
2017-May-22 17:53N 44°27' E 012°15'0 0.0
2017-May-22 16:53N 44°27' E 012°15'0 0.0
2017-May-22 15:38N 44°27' E 012°15'  
2017-May-19 14:53N 44°27' E 012°15'0 0.0
2017-May-19 13:59N 44°27' E 012°15'0 0.0
2017-May-19 08:09N 44°27' E 012°15'1 3.6
2017-May-19 08:00N 44°27' E 012°15'2 4.5
2017-May-19 07:30N 44°29' E 012°16'4 7.1
2017-May-19 07:00N 44°30' E 012°21'2 5.0
2017-May-19 06:30N 44°30' E 012°24'3 6.5
2017-May-19 06:00N 44°31' E 012°28'0 0.4
2017-May-19 05:28N 44°31' E 012°28'0 0.0
2017-May-19 04:58N 44°31' E 012°28'0 0.0
2017-May-19 04:28N 44°31' E 012°28'0 0.0
2017-May-19 03:58N 44°31' E 012°28'0 0.0
2017-May-19 03:28N 44°31' E 012°28'0 0.0
2017-May-19 02:58N 44°31' E 012°28'0 0.0
2017-May-19 02:28N 44°31' E 012°28'0 0.0
2017-May-19 01:58N 44°31' E 012°28'0 0.0
2017-May-19 01:28N 44°31' E 012°28'0 0.0
2017-May-19 00:58N 44°31' E 012°28'0 0.0
2017-May-19 00:28N 44°31' E 012°28'0 0.0
2017-May-18 23:55N 44°31' E 012°28'0 0.0
2017-May-18 23:28N 44°31' E 012°28'0 0.0
2017-May-18 22:58N 44°31' E 012°28'0 0.1
2017-May-18 22:28N 44°31' E 012°28'0 0.0
2017-May-18 21:58N 44°31' E 012°28'0 0.0
2017-May-18 21:28N 44°31' E 012°28'0 0.0
2017-May-18 20:58N 44°31' E 012°28'0 0.0
2017-May-18 20:28N 44°31' E 012°28'0 0.0
2017-May-18 19:58N 44°31' E 012°28'0 0.0
2017-May-18 19:28N 44°31' E 012°28'0 0.0
2017-May-18 18:58N 44°31' E 012°28'0 0.0
2017-May-18 18:28N 44°31' E 012°28'0 0.0
2017-May-18 17:58N 44°31' E 012°28'0 0.0
2017-May-18 17:28N 44°31' E 012°28'0 0.0
2017-May-18 16:55N 44°31' E 012°28'0 0.0
2017-May-18 16:28N 44°31' E 012°28'0 0.0
2017-May-18 15:58N 44°31' E 012°28'0 0.0
2017-May-18 15:28N 44°31' E 012°28'0 0.0
2017-May-18 14:58N 44°31' E 012°28'0 0.0
2017-May-18 13:58N 44°31' E 012°28'0 0.0
2017-May-18 13:28N 44°31' E 012°28'0 0.0
2017-May-18 12:58N 44°31' E 012°28'0 0.1
2017-May-18 12:28N 44°31' E 012°28'0 0.0
2017-May-18 11:58N 44°31' E 012°28'0 0.0
2017-May-18 11:28N 44°31' E 012°28'0 0.0
2017-May-18 10:58N 44°31' E 012°28'0 0.0
2017-May-18 10:28N 44°31' E 012°28'0 0.0
2017-May-18 09:58N 44°31' E 012°28'0 0.0
2017-May-18 09:07N 44°31' E 012°28'0 0.1
2017-May-18 08:49N 44°31' E 012°28'0 0.0
2017-May-18 08:04N 44°31' E 012°28'0 0.0
2017-May-18 07:55N 44°31' E 012°28'0 0.0
2017-May-18 07:28N 44°31' E 012°28'0 0.0
2017-May-18 06:58N 44°31' E 012°28'0 0.0
2017-May-18 06:28N 44°31' E 012°28'0 0.1
2017-May-18 05:55N 44°31' E 012°28'0 0.0
2017-May-18 05:28N 44°31' E 012°28'0 0.0
2017-May-18 04:58N 44°31' E 012°28'0 0.0
2017-May-18 04:28N 44°31' E 012°28'0 0.0
2017-May-18 03:58N 44°31' E 012°28'0 0.0
2017-May-18 03:28N 44°31' E 012°28'0 0.0
2017-May-18 02:58N 44°31' E 012°28'0 0.0
2017-May-18 02:28N 44°31' E 012°28'0 0.0
2017-May-18 01:49N 44°31' E 012°28'0 0.0
2017-May-18 01:28N 44°31' E 012°28'0 0.1
2017-May-18 00:58N 44°31' E 012°28'0 0.1
2017-May-18 00:28N 44°31' E 012°28'0 0.1
2017-May-17 23:58N 44°31' E 012°28'0 0.0
2017-May-17 23:28N 44°31' E 012°28'0 0.0
2017-May-17 22:58N 44°31' E 012°28'0 0.0
2017-May-17 22:25N 44°31' E 012°28'0 0.1
2017-May-17 21:28N 44°31' E 012°28'0 0.0
2017-May-17 20:58N 44°31' E 012°28'0 0.0
2017-May-17 19:58N 44°31' E 012°28'0 0.0
2017-May-17 19:10N 44°31' E 012°28'0 0.0
2017-May-17 18:58N 44°31' E 012°28'0 0.0
2017-May-17 18:22N 44°31' E 012°28'0 0.0
2017-May-17 17:55N 44°31' E 012°28'0 0.0
2017-May-17 17:07N 44°31' E 012°28'0 0.0
2017-May-17 16:58N 44°31' E 012°28'0 0.0
2017-May-17 16:28N 44°31' E 012°28'0 0.0
2017-May-17 15:58N 44°31' E 012°28'0 0.0
2017-May-17 15:28N 44°31' E 012°28'0 0.0
2017-May-17 14:58N 44°31' E 012°28'0 0.0
2017-May-17 14:28N 44°31' E 012°28'0 0.0
2017-May-17 13:28N 44°31' E 012°28'0 0.0
2017-May-17 12:55N 44°31' E 012°28'0 0.0
2017-May-17 12:25N 44°31' E 012°28'0 0.0
2017-May-17 11:58N 44°31' E 012°28'0 0.0
2017-May-17 11:25N 44°31' E 012°28'0 0.0
2017-May-17 10:58N 44°31' E 012°28'0 0.0
2017-May-17 10:28N 44°31' E 012°28'0 0.0
2017-May-17 09:58N 44°31' E 012°28'0 0.0
2017-May-17 09:28N 44°31' E 012°28'0 0.0
2017-May-17 08:58N 44°31' E 012°28'0 0.0
2017-May-17 08:28N 44°31' E 012°28'0 0.0
2017-May-17 07:58N 44°31' E 012°28'0 0.1
2017-May-17 07:25N 44°31' E 012°28'0 0.0
2017-May-17 06:58N 44°31' E 012°28'0 0.0
2017-May-17 06:28N 44°31' E 012°28'0 0.0
2017-May-17 05:58N 44°31' E 012°28'0 0.0
2017-May-17 05:28N 44°31' E 012°28'0 0.0
2017-May-17 04:55N 44°31' E 012°28'0 0.0
2017-May-17 04:13N 44°31' E 012°28'0 0.0
2017-May-17 03:58N 44°31' E 012°28'0 0.0
2017-May-17 03:28N 44°31' E 012°28'0 0.0
2017-May-17 02:58N 44°31' E 012°28'0 0.1
2017-May-17 02:28N 44°31' E 012°28'0 0.1
2017-May-17 01:58N 44°31' E 012°28'0 0.0
2017-May-17 01:28N 44°31' E 012°28'0 0.0
2017-May-17 00:58N 44°31' E 012°28'0 0.0
2017-May-17 00:28N 44°31' E 012°28'0 0.0
2017-May-16 23:58N 44°31' E 012°28'0 0.1
2017-May-16 23:25N 44°31' E 012°28'0 0.0
2017-May-16 22:55N 44°31' E 012°28'0 0.0
2017-May-16 22:28N 44°31' E 012°28'0 0.0
2017-May-16 21:55N 44°31' E 012°28'0 0.0
2017-May-16 21:28N 44°31' E 012°28'0 0.0
2017-May-16 20:58N 44°31' E 012°28'0 0.0
2017-May-16 20:25N 44°31' E 012°28'0 0.0
2017-May-16 19:49N 44°31' E 012°28'0 0.0
2017-May-16 18:04N 44°31' E 012°28'0 0.0
2017-May-16 17:58N 44°31' E 012°28'0 0.0
2017-May-16 17:28N 44°31' E 012°28'0 0.0
2017-May-16 16:58N 44°31' E 012°28'0 0.0
2017-May-16 16:22N 44°31' E 012°28'0 0.0
2017-May-16 15:55N 44°31' E 012°28'0 0.0
2017-May-16 15:25N 44°31' E 012°28'0 0.0
2017-May-16 14:58N 44°31' E 012°28'0 0.0
2017-May-16 14:25N 44°31' E 012°28'0 0.0
2017-May-16 13:07N 44°31' E 012°28'0 0.1
2017-May-16 12:58N 44°31' E 012°28'0 0.0
2017-May-16 12:28N 44°31' E 012°28'0 0.0
2017-May-16 11:58N 44°31' E 012°28'0 0.0
2017-May-16 11:28N 44°31' E 012°28'  
Track history (hours):
 
Tides and Currents Weather Stations Pressure Air Temp Water Temp Dewpoint Dewpoint Depression Visibility Wind Speed Wind Dir Waves Ship Positions

Gaz Venture

Last reported at 2017-May-26 11:00 UTC. Time now 2017-May-26 16:35 UTC.
Position N 35°55' E 014°46'.

Length 120 m; draft 5.6 m.

Type: Ship (hazmat cat D). MMSI: 356141000.

Date/timePositionNaut miles runAvg speedWind from/ knotsBaromVisibWave heightAir tempDewpointWater temp
2017-May-26 11:00N 35°55' E 014°46'0 0.0
2017-May-26 10:30N 35°55' E 014°46'0 0.0
2017-May-26 10:00N 35°55' E 014°46'0 0.0
2017-May-26 09:30N 35°55' E 014°46'0 0.0
2017-May-26 09:00N 35°55' E 014°46'0 0.0
2017-May-26 08:30N 35°55' E 014°46'0 0.0
2017-May-26 08:00N 35°55' E 014°47'0 0.0
2017-May-26 07:30N 35°55' E 014°47'0 0.0
2017-May-26 07:00N 35°55' E 014°47'0 0.0
2017-May-26 06:30N 35°55' E 014°47'0 0.0
2017-May-26 06:00N 35°55' E 014°47'0 0.0
2017-May-26 05:30N 35°55' E 014°47'0 0.0
2017-May-26 05:00N 35°55' E 014°47'0 0.0
2017-May-26 04:30N 35°55' E 014°47'0 0.0
2017-May-26 04:00N 35°55' E 014°47'0 0.0
2017-May-26 03:30N 35°55' E 014°47'0 0.0
2017-May-26 03:00N 35°55' E 014°47'0 0.0
2017-May-26 02:30N 35°55' E 014°47'0 0.0
2017-May-26 01:57N 35°55' E 014°47'0 0.0
2017-May-26 01:30N 35°55' E 014°47'0 0.0
2017-May-26 01:00N 35°55' E 014°47'0 0.0
2017-May-26 00:30N 35°55' E 014°47'0 0.0
2017-May-26 00:00N 35°55' E 014°47'0 0.0
2017-May-25 23:30N 35°55' E 014°47'0 0.0
2017-May-25 23:00N 35°55' E 014°47'0 0.0
2017-May-25 22:27N 35°55' E 014°47'0 0.0
2017-May-25 22:00N 35°55' E 014°47'0 0.0
2017-May-25 21:24N 35°55' E 014°47'0 0.0
2017-May-25 21:00N 35°55' E 014°47'0 0.0
2017-May-25 20:30N 35°55' E 014°47'0 0.0
2017-May-25 19:57N 35°55' E 014°47'0 0.0
2017-May-25 19:30N 35°55' E 014°47'0 0.0
2017-May-25 19:00N 35°55' E 014°47'0 0.1
2017-May-25 18:30N 35°55' E 014°47'0 0.0
2017-May-25 18:00N 35°55' E 014°47'0 0.0
2017-May-25 17:24N 35°55' E 014°47'0 0.0
2017-May-25 17:00N 35°55' E 014°47'0 0.0
2017-May-25 16:30N 35°55' E 014°47'3 5.5
2017-May-25 16:00N 35°56' E 014°50'5 9.8
2017-May-25 15:30N 35°58' E 014°55'814.7
2017-May-25 15:00N 36°01' E 015°03'1514.7
2017-May-25 14:00N 36°09' E 015°18'714.9
2017-May-25 13:30N 36°15' E 015°24'714.5
2017-May-25 13:00N 36°21' E 015°29'814.3
2017-May-25 12:28N 36°27' E 015°35'714.3
2017-May-25 12:00N 36°33' E 015°40'714.2
2017-May-25 11:30N 36°38' E 015°45'713.8
2017-May-25 11:00N 36°44' E 015°50'713.9
2017-May-25 10:29N 36°50' E 015°56'714.3
2017-May-25 10:00N 36°55' E 016°01'814.9
2017-May-25 09:28N 37°02' E 016°07'8114.9
2017-May-25 04:02N 38°06' E 017°09'39312.3
2017-May-23 20:11N 44°03' E 013°29'315.2
2017-May-23 20:00N 44°05' E 013°26'815.2
2017-May-23 19:30N 44°09' E 013°17'714.9
2017-May-23 19:00N 44°13' E 013°09'714.6
2017-May-23 18:30N 44°17' E 013°00'714.6
2017-May-23 18:00N 44°21' E 012°52'714.3
2017-May-23 17:30N 44°24' E 012°43'714.3
2017-May-23 17:00N 44°28' E 012°34'714.4
2017-May-23 16:30N 44°30' E 012°24'611.2
2017-May-23 16:01N 44°30' E 012°17'2 0.1
2017-May-22 18:53N 44°27' E 012°15'0 0.0
2017-May-22 18:23N 44°27' E 012°15'0 0.0
2017-May-22 17:53N 44°27' E 012°15'0 0.0
2017-May-22 16:53N 44°27' E 012°15'0 0.0
2017-May-22 15:38N 44°27' E 012°15'  
2017-May-19 14:53N 44°27' E 012°15'0 0.0
2017-May-19 13:59N 44°27' E 012°15'0 0.0
2017-May-19 08:09N 44°27' E 012°15'1 3.6
2017-May-19 08:00N 44°27' E 012°15'2 4.5
2017-May-19 07:30N 44°29' E 012°16'4 7.1
2017-May-19 07:00N 44°30' E 012°21'2 5.0
2017-May-19 06:30N 44°30' E 012°24'3 6.5
2017-May-19 06:00N 44°31' E 012°28'0 0.4
2017-May-19 05:28N 44°31' E 012°28'0 0.0
2017-May-19 04:58N 44°31' E 012°28'0 0.0
2017-May-19 04:28N 44°31' E 012°28'0 0.0
2017-May-19 03:58N 44°31' E 012°28'0 0.0
2017-May-19 03:28N 44°31' E 012°28'0 0.0
2017-May-19 02:58N 44°31' E 012°28'0 0.0
2017-May-19 02:28N 44°31' E 012°28'0 0.0
2017-May-19 01:58N 44°31' E 012°28'0 0.0
2017-May-19 01:28N 44°31' E 012°28'0 0.0
2017-May-19 00:58N 44°31' E 012°28'0 0.0
2017-May-19 00:28N 44°31' E 012°28'0 0.0
2017-May-18 23:55N 44°31' E 012°28'0 0.0
2017-May-18 23:28N 44°31' E 012°28'0 0.0
2017-May-18 22:58N 44°31' E 012°28'0 0.1
2017-May-18 22:28N 44°31' E 012°28'0 0.0
2017-May-18 21:58N 44°31' E 012°28'0 0.0
2017-May-18 21:28N 44°31' E 012°28'0 0.0
2017-May-18 20:58N 44°31' E 012°28'0 0.0
2017-May-18 20:28N 44°31' E 012°28'0 0.0
2017-May-18 19:58N 44°31' E 012°28'0 0.0
2017-May-18 19:28N 44°31' E 012°28'0 0.0
2017-May-18 18:58N 44°31' E 012°28'0 0.0
2017-May-18 18:28N 44°31' E 012°28'0 0.0
2017-May-18 17:58N 44°31' E 012°28'0 0.0
2017-May-18 17:28N 44°31' E 012°28'0 0.0
2017-May-18 16:55N 44°31' E 012°28'0 0.0
2017-May-18 16:28N 44°31' E 012°28'0 0.0
2017-May-18 15:58N 44°31' E 012°28'0 0.0
2017-May-18 15:28N 44°31' E 012°28'0 0.0
2017-May-18 14:58N 44°31' E 012°28'0 0.0
2017-May-18 13:58N 44°31' E 012°28'0 0.0
2017-May-18 13:28N 44°31' E 012°28'0 0.0
2017-May-18 12:58N 44°31' E 012°28'0 0.1
2017-May-18 12:28N 44°31' E 012°28'0 0.0
2017-May-18 11:58N 44°31' E 012°28'0 0.0
2017-May-18 11:28N 44°31' E 012°28'0 0.0
2017-May-18 10:58N 44°31' E 012°28'0 0.0
2017-May-18 10:28N 44°31' E 012°28'0 0.0
2017-May-18 09:58N 44°31' E 012°28'0 0.0
2017-May-18 09:07N 44°31' E 012°28'0 0.1
2017-May-18 08:49N 44°31' E 012°28'0 0.0
2017-May-18 08:04N 44°31' E 012°28'0 0.0
2017-May-18 07:55N 44°31' E 012°28'0 0.0
2017-May-18 07:28N 44°31' E 012°28'0 0.0
2017-May-18 06:58N 44°31' E 012°28'0 0.0
2017-May-18 06:28N 44°31' E 012°28'0 0.1
2017-May-18 05:55N 44°31' E 012°28'0 0.0
2017-May-18 05:28N 44°31' E 012°28'0 0.0
2017-May-18 04:58N 44°31' E 012°28'0 0.0
2017-May-18 04:28N 44°31' E 012°28'0 0.0
2017-May-18 03:58N 44°31' E 012°28'0 0.0
2017-May-18 03:28N 44°31' E 012°28'0 0.0
2017-May-18 02:58N 44°31' E 012°28'0 0.0
2017-May-18 02:28N 44°31' E 012°28'0 0.0
2017-May-18 01:49N 44°31' E 012°28'0 0.0
2017-May-18 01:28N 44°31' E 012°28'0 0.1
2017-May-18 00:58N 44°31' E 012°28'0 0.1
2017-May-18 00:28N 44°31' E 012°28'0 0.1
2017-May-17 23:58N 44°31' E 012°28'0 0.0
2017-May-17 23:28N 44°31' E 012°28'0 0.0
2017-May-17 22:58N 44°31' E 012°28'0 0.0
2017-May-17 22:25N 44°31' E 012°28'0 0.1
2017-May-17 21:28N 44°31' E 012°28'0 0.0
2017-May-17 20:58N 44°31' E 012°28'0 0.0
2017-May-17 19:58N 44°31' E 012°28'0 0.0
2017-May-17 19:10N 44°31' E 012°28'0 0.0
2017-May-17 18:58N 44°31' E 012°28'0 0.0
2017-May-17 18:22N 44°31' E 012°28'0 0.0
2017-May-17 17:55N 44°31' E 012°28'0 0.0
2017-May-17 17:07N 44°31' E 012°28'0 0.0
2017-May-17 16:58N 44°31' E 012°28'0 0.0
2017-May-17 16:28N 44°31' E 012°28'0 0.0
2017-May-17 15:58N 44°31' E 012°28'0 0.0
2017-May-17 15:28N 44°31' E 012°28'0 0.0
2017-May-17 14:58N 44°31' E 012°28'0 0.0
2017-May-17 14:28N 44°31' E 012°28'0 0.0
2017-May-17 13:28N 44°31' E 012°28'0 0.0
2017-May-17 12:55N 44°31' E 012°28'0 0.0
2017-May-17 12:25N 44°31' E 012°28'0 0.0
2017-May-17 11:58N 44°31' E 012°28'0 0.0
2017-May-17 11:25N 44°31' E 012°28'0 0.0
2017-May-17 10:58N 44°31' E 012°28'0 0.0
2017-May-17 10:28N 44°31' E 012°28'0 0.0
2017-May-17 09:58N 44°31' E 012°28'0 0.0
2017-May-17 09:28N 44°31' E 012°28'0 0.0
2017-May-17 08:58N 44°31' E 012°28'0 0.0
2017-May-17 08:28N 44°31' E 012°28'0 0.0
2017-May-17 07:58N 44°31' E 012°28'0 0.1
2017-May-17 07:25N 44°31' E 012°28'0 0.0
2017-May-17 06:58N 44°31' E 012°28'0 0.0
2017-May-17 06:28N 44°31' E 012°28'0 0.0
2017-May-17 05:58N 44°31' E 012°28'0 0.0
2017-May-17 05:28N 44°31' E 012°28'0 0.0
2017-May-17 04:55N 44°31' E 012°28'0 0.0
2017-May-17 04:13N 44°31' E 012°28'0 0.0
2017-May-17 03:58N 44°31' E 012°28'0 0.0
2017-May-17 03:28N 44°31' E 012°28'0 0.0
2017-May-17 02:58N 44°31' E 012°28'0 0.1
2017-May-17 02:28N 44°31' E 012°28'0 0.1
2017-May-17 01:58N 44°31' E 012°28'0 0.0
2017-May-17 01:28N 44°31' E 012°28'0 0.0
2017-May-17 00:58N 44°31' E 012°28'0 0.0
2017-May-17 00:28N 44°31' E 012°28'0 0.0
2017-May-16 23:58N 44°31' E 012°28'0 0.1
2017-May-16 23:25N 44°31' E 012°28'0 0.0
2017-May-16 22:55N 44°31' E 012°28'0 0.0
2017-May-16 22:28N 44°31' E 012°28'0 0.0
2017-May-16 21:55N 44°31' E 012°28'0 0.0
2017-May-16 21:28N 44°31' E 012°28'0 0.0
2017-May-16 20:58N 44°31' E 012°28'0 0.0
2017-May-16 20:25N 44°31' E 012°28'0 0.0
2017-May-16 19:49N 44°31' E 012°28'0 0.0
2017-May-16 18:04N 44°31' E 012°28'0 0.0
2017-May-16 17:58N 44°31' E 012°28'0 0.0
2017-May-16 17:28N 44°31' E 012°28'0 0.0
2017-May-16 16:58N 44°31' E 012°28'0 0.0
2017-May-16 16:22N 44°31' E 012°28'0 0.0
2017-May-16 15:55N 44°31' E 012°28'0 0.0
2017-May-16 15:25N 44°31' E 012°28'0 0.0
2017-May-16 14:58N 44°31' E 012°28'0 0.0
2017-May-16 14:25N 44°31' E 012°28'0 0.0
2017-May-16 13:07N 44°31' E 012°28'0 0.1
2017-May-16 12:58N 44°31' E 012°28'0 0.0
2017-May-16 12:28N 44°31' E 012°28'0 0.0
2017-May-16 11:58N 44°31' E 012°28'0 0.0
2017-May-16 11:28N 44°31' E 012°28'  

Dump ship's entire track history